Time;durP1;ratioP1;P1;durP2;ratioP2;P2;SDS_P1;SDS_P2;PMS_P1;PMS_P2;Temp;Humidity;BMP_temperature;BMP_pressure;BME280_temperature;BME280_humidity;BME280_pressure;Samples;Min_cycle;Max_cycle;Signal;HPM_P1;HPM_P2
2020/12/24 00:00:48;;;;;;;21.83;4.32;;;10.10;99.90;;;;;;4958024;28;20055;-89
2020/12/24 00:03:36;;;;;;;18.10;4.68;;;10.20;99.90;;;;;;4944790;28;20038;-89
2020/12/24 00:06:04;;;;;;;17.65;4.03;;;10.20;99.90;;;;;;4957264;28;20073;-89
2020/12/24 00:08:30;;;;;;;28.77;5.25;;;9.90;99.90;;;;;;4943978;28;20130;-90
2020/12/24 00:10:58;;;;;;;21.35;4.05;;;10.00;99.90;;;;;;4958402;28;20070;-89
2020/12/24 00:13:24;;;;;;;22.92;4.15;;;10.10;99.90;;;;;;4958758;28;20031;-92
2020/12/24 00:15:52;;;;;;;26.60;4.57;;;10.00;99.90;;;;;;4957636;28;20118;-87
2020/12/24 00:18:19;;;;;;;24.35;4.28;;;9.90;99.90;;;;;;4957326;28;20085;-87
2020/12/24 00:20:46;;;;;;;21.63;4.13;;;9.90;99.90;;;;;;4957759;28;20046;-87
2020/12/24 00:23:12;;;;;;;16.92;4.03;;;9.90;99.90;;;;;;4957129;28;20090;-86
2020/12/24 00:25:38;;;;;;;25.40;5.45;;;9.90;99.90;;;;;;4957206;28;20034;-88
2020/12/24 00:28:05;;;;;;;27.65;4.25;;;9.80;99.90;;;;;;4974363;28;20104;-87
2020/12/24 00:30:31;;;;;;;17.42;3.70;;;9.80;99.90;;;;;;4957192;28;20058;-88
2020/12/24 00:33:00;;;;;;;20.80;3.85;;;9.90;99.90;;;;;;4956970;28;20595;-88
2020/12/24 00:35:28;;;;;;;22.05;4.38;;;9.80;99.90;;;;;;4957634;28;20030;-87
2020/12/24 00:37:54;;;;;;;19.75;3.72;;;9.90;99.90;;;;;;4957177;28;20031;-87
2020/12/24 00:40:20;;;;;;;26.63;4.15;;;9.80;99.90;;;;;;4957558;28;20069;-88
2020/12/24 00:42:48;;;;;;;23.95;4.03;;;9.70;99.90;;;;;;4950703;28;20477;-85
2020/12/24 00:45:13;;;;;;;29.45;4.55;;;9.80;99.90;;;;;;4968474;28;20031;-87
2020/12/24 00:47:39;;;;;;;17.48;3.67;;;9.80;99.90;;;;;;4962107;28;20085;-86
2020/12/24 00:50:05;;;;;;;25.55;5.45;;;9.80;99.90;;;;;;4959484;28;20376;-87
2020/12/24 00:52:30;;;;;;;21.70;4.22;;;9.80;99.90;;;;;;4974163;28;20088;-86
2020/12/24 00:54:56;;;;;;;23.60;5.35;;;9.70;99.90;;;;;;4940626;28;20128;-85
2020/12/24 00:57:22;;;;;;;27.33;4.50;;;9.60;99.90;;;;;;4924918;28;20453;-86
2020/12/24 00:59:47;;;;;;;25.45;4.63;;;9.70;99.90;;;;;;4940772;28;20059;-87
2020/12/24 01:02:13;;;;;;;19.30;4.07;;;9.70;99.90;;;;;;4956887;28;20062;-86
2020/12/24 01:04:39;;;;;;;23.45;5.03;;;9.60;99.90;;;;;;4974325;28;20031;-86
2020/12/24 01:07:04;;;;;;;27.85;4.57;;;9.70;99.90;;;;;;4973079;28;20042;-87
2020/12/24 01:09:30;;;;;;;17.30;5.00;;;9.70;99.90;;;;;;4973221;28;20468;-87
2020/12/24 01:11:56;;;;;;;18.67;4.13;;;9.80;99.90;;;;;;4956716;28;20031;-87
2020/12/24 01:14:23;;;;;;;17.77;3.97;;;9.80;99.90;;;;;;4956901;28;20090;-86
2020/12/24 01:16:48;;;;;;;20.48;4.18;;;9.90;99.90;;;;;;4958646;28;20026;-87
2020/12/24 01:19:14;;;;;;;14.18;3.50;;;10.00;99.90;;;;;;4976499;28;20035;-86
2020/12/24 01:21:45;;;;;;;19.90;4.30;;;9.80;99.90;;;;;;4959939;28;20077;-87
2020/12/24 01:24:12;;;;;;;19.50;4.60;;;9.80;99.90;;;;;;4977455;28;20034;-87
2020/12/24 01:26:38;;;;;;;18.30;3.67;;;9.90;99.90;;;;;;4976125;28;20097;-87
2020/12/24 01:29:06;;;;;;;19.40;4.28;;;9.90;99.90;;;;;;4977485;28;20474;-85
2020/12/24 01:31:32;;;;;;;10.45;5.05;;;9.80;99.90;;;;;;4960150;28;20027;-87
2020/12/24 01:33:57;;;;;;;6.35;4.43;;;9.50;99.90;;;;;;4960259;28;20126;-86
2020/12/24 01:36:23;;;;;;;7.00;5.30;;;9.00;99.90;;;;;;4977389;28;20026;-86
2020/12/24 01:38:49;;;;;;;7.63;4.63;;;8.60;99.90;;;;;;4959913;28;20030;-86
2020/12/24 01:41:14;;;;;;;7.40;3.35;;;8.20;99.90;;;;;;4960183;28;20027;-87
2020/12/24 01:43:40;;;;;;;5.28;2.60;;;7.80;99.90;;;;;;4959650;28;20035;-87
2020/12/24 01:46:05;;;;;;;7.55;2.88;;;7.60;99.90;;;;;;4944208;28;20059;-86
2020/12/24 01:48:31;;;;;;;5.65;3.45;;;7.50;99.90;;;;;;4977496;28;20085;-86
2020/12/24 01:50:57;;;;;;;5.43;2.90;;;7.40;99.90;;;;;;4962173;28;20046;-86
2020/12/24 01:53:24;;;;;;;8.07;3.00;;;7.40;99.90;;;;;;4962178;28;20042;-88
2020/12/24 01:55:51;;;;;;;5.28;3.10;;;7.40;99.90;;;;;;4959298;28;20496;-86
2020/12/24 01:58:18;;;;;;;5.97;3.50;;;7.20;99.90;;;;;;4959806;28;20544;-86
2020/12/24 02:00:47;;;;;;;6.20;3.83;;;7.00;99.90;;;;;;4958591;28;20051;-86
2020/12/24 02:03:14;;;;;;;5.43;3.50;;;7.00;99.90;;;;;;4976833;28;20046;-86
2020/12/24 02:05:40;;;;;;;7.40;3.45;;;6.90;99.90;;;;;;4959223;28;20127;-86
2020/12/24 02:08:06;;;;;;;7.43;3.40;;;6.80;99.90;;;;;;4942779;28;20511;-86
2020/12/24 02:10:31;;;;;;;5.13;2.67;;;6.70;99.90;;;;;;4976460;28;20026;-85
2020/12/24 02:12:57;;;;;;;8.85;2.90;;;6.70;99.90;;;;;;4958871;28;20065;-85
2020/12/24 02:15:23;;;;;;;5.28;2.63;;;6.60;99.90;;;;;;4943137;28;20042;-86
2020/12/24 02:17:48;;;;;;;4.95;2.80;;;6.60;99.90;;;;;;4958706;28;20035;-86
2020/12/24 02:20:14;;;;;;;8.57;2.45;;;6.60;99.90;;;;;;4974975;28;20085;-86
2020/12/24 02:22:40;;;;;;;6.05;2.30;;;6.60;99.90;;;;;;4958909;28;20125;-86
2020/12/24 02:25:05;;;;;;;12.85;2.70;;;6.60;99.90;;;;;;4943002;28;20061;-86
2020/12/24 02:27:31;;;;;;;5.78;2.00;;;6.40;99.90;;;;;;4942990;28;20074;-86
2020/12/24 02:29:58;;;;;;;6.97;2.80;;;6.50;99.90;;;;;;4942909;28;20034;-86
2020/12/24 02:32:24;;;;;;;8.00;2.60;;;6.40;99.90;;;;;;4959345;28;20031;-86
2020/12/24 02:34:49;;;;;;;9.05;2.20;;;6.50;99.90;;;;;;4958649;28;20046;-87
2020/12/24 02:37:15;;;;;;;6.95;2.00;;;6.50;99.90;;;;;;4927094;28;20031;-86
2020/12/24 02:39:40;;;;;;;7.30;1.75;;;6.20;99.90;;;;;;4978863;28;20045;-86
2020/12/24 02:42:08;;;;;;;4.78;1.65;;;6.30;99.90;;;;;;4962850;28;20023;-87
2020/12/24 02:44:34;;;;;;;3.70;1.52;;;6.30;99.90;;;;;;4960613;28;20039;-86
2020/12/24 02:46:59;;;;;;;7.53;2.13;;;6.10;99.90;;;;;;4943372;28;20037;-86
2020/12/24 02:49:25;;;;;;;5.28;1.40;;;6.00;99.90;;;;;;4959123;28;20066;-87
2020/12/24 02:51:50;;;;;;;6.13;1.60;;;6.10;99.90;;;;;;4958371;28;20050;-87
2020/12/24 02:54:16;;;;;;;3.75;1.98;;;6.10;99.90;;;;;;4958988;28;20042;-88
2020/12/24 02:56:42;;;;;;;9.48;1.80;;;6.00;99.90;;;;;;4942562;28;20432;-88
2020/12/24 02:59:07;;;;;;;5.70;1.25;;;5.90;99.90;;;;;;4974773;28;20050;-87
2020/12/24 03:01:33;;;;;;;5.03;1.00;;;5.70;99.90;;;;;;4975004;28;20031;-89
2020/12/24 03:04:00;;;;;;;3.45;1.00;;;5.60;99.90;;;;;;4942600;28;20031;-87
2020/12/24 03:06:26;;;;;;;2.20;1.02;;;5.50;99.90;;;;;;4975069;28;20106;-88
2020/12/24 03:08:52;;;;;;;6.47;1.42;;;5.50;99.90;;;;;;4958462;28;20030;-86
2020/12/24 03:11:17;;;;;;;3.60;1.15;;;5.50;99.90;;;;;;4927381;28;20082;-86
2020/12/24 03:13:43;;;;;;;5.25;0.95;;;5.30;99.90;;;;;;4958486;28;20463;-86
2020/12/24 03:16:08;;;;;;;2.38;1.02;;;5.30;99.90;;;;;;4942582;28;20527;-86
2020/12/24 03:18:34;;;;;;;4.32;0.80;;;5.20;99.90;;;;;;4981153;28;20433;-84
2020/12/24 03:21:00;;;;;;;3.17;0.95;;;5.20;99.90;;;;;;4968757;28;20035;-86
2020/12/24 03:23:25;;;;;;;3.55;0.85;;;5.20;99.90;;;;;;4944935;28;20062;-87
2020/12/24 03:25:51;;;;;;;2.53;0.88;;;5.10;99.90;;;;;;4960157;28;20038;-86
2020/12/24 03:28:17;;;;;;;4.22;0.73;;;5.10;99.90;;;;;;4964185;28;20086;-87
2020/12/24 03:30:43;;;;;;;2.13;0.82;;;5.00;99.90;;;;;;4963005;28;20465;-87
2020/12/24 03:33:08;;;;;;;1.92;0.70;;;5.10;99.90;;;;;;4963362;28;20054;-86
2020/12/24 03:35:34;;;;;;;3.88;1.00;;;4.90;99.90;;;;;;4962089;28;20027;-88
2020/12/24 03:37:59;;;;;;;1.95;0.85;;;4.90;99.90;;;;;;4958492;28;20035;-87
2020/12/24 03:40:25;;;;;;;3.75;0.90;;;4.90;99.90;;;;;;4957909;28;20031;-86
2020/12/24 03:42:51;;;;;;;2.50;0.98;;;4.80;99.90;;;;;;4957821;28;20205;-87
2020/12/24 03:45:16;;;;;;;4.13;0.95;;;4.80;99.90;;;;;;4942004;28;20479;-86
2020/12/24 03:47:43;;;;;;;4.45;0.98;;;4.80;99.90;;;;;;4957497;28;20023;-87
2020/12/24 03:50:08;;;;;;;3.42;1.50;;;4.80;99.90;;;;;;4957375;28;20058;-86
2020/12/24 03:52:34;;;;;;;2.75;0.70;;;4.90;99.90;;;;;;4957721;28;20516;-90
2020/12/24 03:55:00;;;;;;;3.72;1.10;;;4.90;99.90;;;;;;4957187;28;20061;-87
2020/12/24 03:57:25;;;;;;;4.82;0.85;;;4.90;99.90;;;;;;4957720;28;20042;-87
2020/12/24 03:59:51;;;;;;;2.17;0.98;;;4.90;99.90;;;;;;4941525;28;20062;-87
2020/12/24 04:02:16;;;;;;;3.40;0.77;;;4.90;99.90;;;;;;4957752;28;20086;-86
2020/12/24 04:04:42;;;;;;;3.40;0.95;;;4.80;99.90;;;;;;4973834;28;20042;-87
2020/12/24 04:07:08;;;;;;;1.85;0.70;;;4.80;99.90;;;;;;4957496;28;20093;-86
2020/12/24 04:09:33;;;;;;;1.98;0.77;;;4.90;99.90;;;;;;4957727;28;20488;-86
2020/12/24 04:11:59;;;;;;;3.13;0.95;;;4.90;99.90;;;;;;4957359;28;20042;-88
2020/12/24 04:14:25;;;;;;;7.40;1.45;;;4.90;99.90;;;;;;4957452;28;20034;-87
2020/12/24 04:16:50;;;;;;;2.78;1.52;;;4.90;99.90;;;;;;4973604;28;20392;-86
2020/12/24 04:19:16;;;;;;;3.08;1.10;;;5.00;99.90;;;;;;4957583;28;20063;-86
2020/12/24 04:21:41;;;;;;;3.78;1.20;;;4.90;99.90;;;;;;4956992;28;20058;-87
2020/12/24 04:24:07;;;;;;;1.65;0.80;;;5.00;99.90;;;;;;4957084;28;20494;-86
2020/12/24 04:26:33;;;;;;;4.28;1.00;;;5.10;99.90;;;;;;4973424;28;20080;-86
2020/12/24 04:28:58;;;;;;;1.38;0.93;;;5.00;99.90;;;;;;4972853;28;20089;-86
2020/12/24 04:31:24;;;;;;;2.50;0.68;;;5.00;99.90;;;;;;4941468;28;20472;-86
2020/12/24 04:33:50;;;;;;;4.82;0.77;;;5.00;99.90;;;;;;4957055;28;20079;-86
2020/12/24 04:36:16;;;;;;;3.50;1.27;;;5.00;99.90;;;;;;4973131;28;20121;-86
2020/12/24 04:38:42;;;;;;;1.95;0.60;;;5.00;99.90;;;;;;4956942;28;20027;-87
2020/12/24 04:41:09;;;;;;;4.03;1.10;;;5.00;99.90;;;;;;4957037;28;20055;-86
2020/12/24 04:43:37;;;;;;;7.65;1.52;;;5.00;99.90;;;;;;4941120;28;20039;-86
2020/12/24 04:46:05;;;;;;;4.30;0.88;;;4.90;99.90;;;;;;4940679;28;20030;-86
2020/12/24 04:48:31;;;;;;;1.85;1.00;;;5.00;99.90;;;;;;4974414;28;20460;-87
2020/12/24 04:51:00;;;;;;;1.85;0.90;;;5.00;99.90;;;;;;4960522;28;20093;-86
2020/12/24 04:53:26;;;;;;;2.05;0.90;;;5.10;99.90;;;;;;4994633;28;20059;-87
2020/12/24 04:55:53;;;;;;;3.38;1.15;;;5.10;99.90;;;;;;4960698;28;20059;-87
2020/12/24 04:58:20;;;;;;;3.55;0.90;;;5.00;99.90;;;;;;4944584;28;20031;-87
2020/12/24 05:00:47;;;;;;;2.55;0.95;;;5.10;99.90;;;;;;4944495;28;20059;-87
2020/12/24 05:03:13;;;;;;;2.72;1.00;;;5.10;99.90;;;;;;4976486;28;20065;-86
2020/12/24 05:05:39;;;;;;;3.17;1.00;;;5.10;99.90;;;;;;4960243;28;20530;-86
2020/12/24 05:08:07;;;;;;;2.55;0.73;;;5.10;99.90;;;;;;4960507;28;20098;-87
2020/12/24 05:10:34;;;;;;;4.43;1.08;;;5.00;99.90;;;;;;4960241;28;20026;-86
2020/12/24 05:13:18;;;;;;;3.80;1.52;;;5.10;99.90;;;;;;4960361;28;20066;-85
2020/12/24 05:15:44;;;;;;;3.63;0.98;;;5.10;99.90;;;;;;4959263;28;20369;-87
2020/12/24 05:18:19;;;;;;;3.03;0.80;;;5.10;99.90;;;;;;4959295;28;20025;-87
2020/12/24 05:20:51;;;;;;;4.30;1.00;;;5.10;99.90;;;;;;4958684;28;20071;-87
2020/12/24 05:23:18;;;;;;;8.45;1.33;;;5.30;99.90;;;;;;4968548;28;20042;-87
2020/12/24 05:25:45;;;;;;;8.98;1.60;;;5.40;99.90;;;;;;4960539;28;20035;-88
2020/12/24 05:28:24;;;;;;;2.67;0.90;;;5.40;99.90;;;;;;4960007;28;20031;-86
2020/12/24 05:30:50;;;;;;;9.88;1.40;;;5.50;99.90;;;;;;4959867;28;20030;-86
2020/12/24 05:33:30;;;;;;;5.30;1.00;;;5.60;99.90;;;;;;4960078;28;20034;-86
2020/12/24 05:36:18;;;;;;;2.35;1.10;;;5.60;99.90;;;;;;4964217;28;20041;-86
2020/12/24 05:38:45;;;;;;;2.67;1.00;;;5.60;99.90;;;;;;4960232;28;20081;-91
2020/12/24 05:41:31;;;;;;;2.28;1.00;;;5.60;99.90;;;;;;4960133;28;20396;-85
2020/12/24 05:44:07;;;;;;;1.42;1.00;;;5.60;99.90;;;;;;4959754;28;20042;-86
2020/12/24 05:46:47;;;;;;;2.17;1.08;;;5.50;99.90;;;;;;4960321;28;20027;-88
2020/12/24 05:49:17;;;;;;;4.90;1.20;;;5.60;99.90;;;;;;4960035;28;20030;-87
2020/12/24 05:51:59;;;;;;;6.45;1.10;;;5.60;99.90;;;;;;4959598;28;20027;-87
2020/12/24 05:54:29;;;;;;;3.03;1.35;;;5.50;99.90;;;;;;4982543;28;20030;-85
2020/12/24 05:56:56;;;;;;;3.05;1.63;;;5.50;99.90;;;;;;4952774;29;20032;-85
2020/12/24 05:59:24;;;;;;;3.70;1.58;;;5.50;99.90;;;;;;4959968;28;20098;-87
2020/12/24 06:02:14;;;;;;;8.18;2.83;;;5.50;99.90;;;;;;4978195;28;20546;-88
2020/12/24 06:04:51;;;;;;;9.63;2.70;;;5.50;99.90;;;;;;4959160;28;20046;-87
2020/12/24 06:07:20;;;;;;;5.93;1.60;;;5.40;99.90;;;;;;4976840;28;20102;-86
2020/12/24 06:09:48;;;;;;;7.80;1.58;;;5.30;99.90;;;;;;4959496;28;20062;-86
2020/12/24 06:12:20;;;;;;;2.72;1.35;;;5.40;99.90;;;;;;4976562;28;20499;-86
2020/12/24 06:14:48;;;;;;;3.92;1.42;;;5.30;99.90;;;;;;4959577;28;20469;-86
2020/12/24 06:17:18;;;;;;;5.82;1.30;;;5.30;99.90;;;;;;4959314;28;20058;-87
2020/12/24 06:19:44;;;;;;;5.20;1.25;;;5.30;99.90;;;;;;4976513;28;20030;-86
2020/12/24 06:22:11;;;;;;;2.35;1.30;;;5.30;99.90;;;;;;4942792;28;20030;-85
2020/12/24 06:24:59;;;;;;;5.00;1.73;;;5.30;99.90;;;;;;4958632;28;20114;-86
2020/12/24 06:27:42;;;;;;;4.32;1.85;;;5.30;99.90;;;;;;4958964;28;20435;-85
2020/12/24 06:30:15;;;;;;;5.47;1.88;;;5.50;99.90;;;;;;4958944;28;20030;-86
2020/12/24 06:32:47;;;;;;;5.43;1.63;;;5.40;99.90;;;;;;4958684;28;20086;-87
2020/12/24 06:35:39;;;;;;;7.60;2.08;;;5.40;99.90;;;;;;4958770;28;20022;-85
2020/12/24 06:38:06;;;;;;;8.27;2.55;;;5.50;99.90;;;;;;4975938;28;20030;-86
2020/12/24 06:40:37;;;;;;;4.25;2.00;;;5.40;99.90;;;;;;4943342;28;20464;-86
2020/12/24 06:43:04;;;;;;;8.02;2.05;;;5.40;99.90;;;;;;4958743;28;20035;-87
2020/12/24 06:45:31;;;;;;;6.32;2.10;;;5.50;99.90;;;;;;4958588;28;20409;-86
2020/12/24 06:48:12;;;;;;;4.95;2.03;;;5.50;99.90;;;;;;4958002;28;20047;-86
2020/12/24 06:50:39;;;;;;;7.30;2.50;;;5.60;99.90;;;;;;4975735;28;20026;-86
2020/12/24 06:53:25;;;;;;;5.32;2.17;;;5.60;99.90;;;;;;4958594;28;20034;-86
2020/12/24 06:56:09;;;;;;;5.60;2.10;;;5.60;99.90;;;;;;4958717;28;20031;-87
2020/12/24 06:59:03;;;;;;;5.57;1.98;;;5.60;99.90;;;;;;4959458;28;20038;-86
2020/12/24 07:01:35;;;;;;;6.75;1.70;;;5.40;99.90;;;;;;4975962;28;20047;-87
2020/12/24 07:04:03;;;;;;;7.70;2.00;;;5.40;99.90;;;;;;4926933;28;20045;-87
2020/12/24 07:06:41;;;;;;;6.68;2.50;;;5.50;99.90;;;;;;4958169;28;20031;-87
2020/12/24 07:09:31;;;;;;;9.77;1.85;;;5.50;99.90;;;;;;4957996;28;20035;-87
2020/12/24 07:11:57;;;;;;;6.32;1.42;;;5.50;99.90;;;;;;4957773;28;20058;-87
2020/12/24 07:14:37;;;;;;;7.07;1.88;;;5.60;99.90;;;;;;4957116;28;20034;-87
2020/12/24 07:17:14;;;;;;;5.78;1.50;;;5.60;99.90;;;;;;4958416;28;20022;-86
2020/12/24 07:19:42;;;;;;;7.57;1.30;;;5.60;99.90;;;;;;4958326;28;20130;-86
2020/12/24 07:22:14;;;;;;;6.90;1.38;;;5.60;99.90;;;;;;4957822;28;20027;-86
2020/12/24 07:24:40;;;;;;;2.75;1.20;;;5.70;99.90;;;;;;4975353;28;20039;-86
2020/12/24 07:27:06;;;;;;;6.13;1.63;;;5.70;99.90;;;;;;4941910;28;20031;-85
2020/12/24 07:29:33;;;;;;;12.00;2.67;;;5.80;99.90;;;;;;4957806;28;20031;-86
2020/12/24 07:32:04;;;;;;;7.43;1.95;;;5.80;99.90;;;;;;4957480;28;20061;-88
2020/12/24 07:34:35;;;;;;;9.00;2.30;;;5.80;99.90;;;;;;4941826;28;20519;-87
2020/12/24 07:37:01;;;;;;;7.82;2.67;;;5.90;99.90;;;;;;4957576;28;20066;-86
2020/12/24 07:39:27;;;;;;;8.40;2.30;;;5.90;99.90;;;;;;4958645;28;20038;-87
2020/12/24 07:41:53;;;;;;;8.80;2.38;;;6.00;99.90;;;;;;4941314;28;20394;-85
2020/12/24 07:44:19;;;;;;;4.70;1.90;;;6.10;99.90;;;;;;4957326;28;20485;-87
2020/12/24 07:46:47;;;;;;;5.20;1.80;;;6.10;99.90;;;;;;4941565;28;20122;-86
2020/12/24 07:49:13;;;;;;;4.78;1.58;;;5.90;99.90;;;;;;4941656;28;20058;-87
2020/12/24 07:51:39;;;;;;;5.85;1.50;;;6.10;99.90;;;;;;4974780;28;20026;-86
2020/12/24 07:54:06;;;;;;;5.97;1.80;;;6.20;99.90;;;;;;4974539;28;20469;-89
2020/12/24 07:56:34;;;;;;;4.70;1.73;;;6.20;99.90;;;;;;4957692;28;20031;-86
2020/12/24 07:59:08;;;;;;;4.40;1.58;;;6.20;99.90;;;;;;4957703;28;20026;-87
2020/12/24 08:01:34;;;;;;;7.40;1.90;;;6.00;99.90;;;;;;4956876;28;20158;-86
2020/12/24 08:04:01;;;;;;;7.30;2.42;;;6.20;99.90;;;;;;4925359;28;20130;-87
2020/12/24 08:06:28;;;;;;;7.05;2.10;;;6.20;99.90;;;;;;4941157;28;20031;-87
2020/12/24 08:09:16;;;;;;;6.45;1.85;;;6.20;99.90;;;;;;4958419;28;20125;-86
2020/12/24 08:11:50;;;;;;;5.57;2.40;;;6.30;99.90;;;;;;4962625;28;20109;-87
2020/12/24 08:14:22;;;;;;;;;;;6.20;99.90;;;;;;4957593;28;20038;-87
2020/12/24 08:16:49;;;;;;;16.05;4.07;;;6.30;99.90;;;;;;4957308;28;19906;-86
2020/12/24 08:19:31;;;;;;;17.98;3.65;;;6.30;99.90;;;;;;4956881;28;20027;-87
2020/12/24 08:22:05;;;;;;;13.90;2.25;;;6.40;99.90;;;;;;4957419;28;20023;-86
2020/12/24 08:24:35;;;;;;;13.03;2.47;;;6.40;99.90;;;;;;4956080;28;20137;-86
2020/12/24 08:27:02;;;;;;;20.02;2.90;;;6.40;99.90;;;;;;4980719;28;20349;-88
2020/12/24 08:29:29;;;;;;;12.73;3.33;;;6.60;99.90;;;;;;4950250;28;20043;-85
2020/12/24 08:31:56;;;;;;;24.67;3.80;;;6.60;99.90;;;;;;4981449;28;20097;-85
2020/12/24 08:34:22;;;;;;;16.73;3.05;;;6.60;99.90;;;;;;4972044;28;20061;-87
2020/12/24 08:36:49;;;;;;;16.27;2.90;;;6.60;99.90;;;;;;4969372;28;20046;-85
2020/12/24 08:39:17;;;;;;;26.25;4.93;;;6.60;99.90;;;;;;4963846;28;20035;-87
2020/12/24 08:41:54;;;;;;;30.02;4.22;;;6.60;99.90;;;;;;4947294;28;20060;-85
2020/12/24 08:44:21;;;;;;;18.10;3.63;;;6.60;99.90;;;;;;4961288;28;20034;-86
2020/12/24 08:47:03;;;;;;;28.35;5.57;;;6.70;99.90;;;;;;4962709;28;20090;-87
2020/12/24 08:49:31;;;;;;;30.52;5.47;;;6.70;99.90;;;;;;4962984;28;20062;-86
2020/12/24 08:52:21;;;;;;;15.98;3.83;;;6.70;99.90;;;;;;4963321;28;20022;-87
2020/12/24 08:55:07;;;;;;;30.65;5.20;;;6.70;99.90;;;;;;4962970;28;20031;-87
2020/12/24 08:57:33;;;;;;;16.38;5.18;;;6.80;99.90;;;;;;4963320;28;20141;-89
2020/12/24 09:00:03;;;;;;;22.33;4.63;;;6.80;99.90;;;;;;4962801;28;20033;-86
2020/12/24 09:02:34;;;;;;;22.27;4.40;;;6.80;99.90;;;;;;4963459;28;20133;-85
2020/12/24 09:05:01;;;;;;;21.23;5.03;;;6.90;99.90;;;;;;4947617;28;20221;-86
2020/12/24 09:07:30;;;;;;;23.70;4.05;;;6.90;99.90;;;;;;4962688;28;20027;-85
2020/12/24 09:10:11;;;;;;;22.70;4.25;;;7.00;99.90;;;;;;4947232;28;20026;-84
2020/12/24 09:12:42;;;;;;;17.90;4.03;;;7.00;99.90;;;;;;4962805;28;20062;-84
2020/12/24 09:15:13;;;;;;;23.92;4.20;;;7.00;99.90;;;;;;4980099;28;20035;-84
2020/12/24 09:17:53;;;;;;;14.30;3.72;;;7.00;99.90;;;;;;4962828;28;20035;-85
2020/12/24 09:20:30;;;;;;;16.35;3.60;;;7.10;99.90;;;;;;4980333;28;20138;-85
2020/12/24 09:23:16;;;;;;;22.98;3.53;;;7.00;99.90;;;;;;4951224;28;20038;-84
2020/12/24 09:25:46;;;;;;;20.95;4.80;;;7.10;99.90;;;;;;4962225;28;20555;-85
2020/12/24 09:28:24;;;;;;;21.38;3.20;;;7.10;99.90;;;;;;4980073;28;20045;-85
2020/12/24 09:30:52;;;;;;;20.67;3.60;;;7.10;99.90;;;;;;4962981;28;20025;-84
2020/12/24 09:33:18;;;;;;;25.08;3.75;;;7.10;99.90;;;;;;4962606;28;20177;-83
2020/12/24 09:35:44;;;;;;;15.75;3.92;;;7.10;99.90;;;;;;4962850;28;20042;-84
2020/12/24 09:38:10;;;;;;;17.63;3.20;;;7.10;99.90;;;;;;4959932;28;20031;-84
2020/12/24 09:40:38;;;;;;;19.23;3.58;;;7.20;99.90;;;;;;4960445;28;20031;-87
2020/12/24 09:43:04;;;;;;;12.65;2.70;;;7.20;99.90;;;;;;4944535;28;20035;-85
2020/12/24 09:45:31;;;;;;;17.33;3.40;;;7.20;99.90;;;;;;4960325;28;20536;-86
2020/12/24 09:47:58;;;;;;;18.80;3.10;;;7.20;99.90;;;;;;4943941;28;20074;-85
2020/12/24 09:50:25;;;;;;;15.57;2.92;;;7.20;99.90;;;;;;4959727;28;20391;-86
2020/12/24 09:52:53;;;;;;;16.60;3.30;;;7.20;99.90;;;;;;4944370;28;20093;-84
2020/12/24 09:55:18;;;;;;;8.73;1.88;;;7.20;99.90;;;;;;4960542;28;20039;-85
2020/12/24 09:57:44;;;;;;;13.23;3.05;;;7.20;99.90;;;;;;4959822;28;20027;-85
2020/12/24 10:00:11;;;;;;;10.45;2.60;;;7.10;99.90;;;;;;4958992;28;20404;-84
2020/12/24 10:02:37;;;;;;;13.95;3.22;;;7.10;99.90;;;;;;4977110;28;20086;-84
2020/12/24 10:05:06;;;;;;;17.95;2.80;;;7.10;99.90;;;;;;4977299;28;20023;-87
2020/12/24 10:07:33;;;;;;;11.98;2.60;;;7.10;99.90;;;;;;4959723;28;20377;-87
2020/12/24 10:09:59;;;;;;;11.98;2.38;;;7.20;99.90;;;;;;4944019;28;20038;-87
2020/12/24 10:12:31;;;;;;;12.20;2.35;;;7.20;99.90;;;;;;4959767;28;20469;-88
2020/12/24 10:14:57;;;;;;;7.95;2.80;;;7.10;99.90;;;;;;4959247;28;20062;-86
2020/12/24 10:17:24;;;;;;;8.00;2.72;;;7.20;99.90;;;;;;4943469;28;20066;-84
2020/12/24 10:19:53;;;;;;;9.90;2.60;;;7.20;99.90;;;;;;4942990;28;20043;-85
2020/12/24 10:22:19;;;;;;;14.23;3.38;;;7.30;99.90;;;;;;4958427;28;20031;-86
2020/12/24 10:24:45;;;;;;;12.88;2.08;;;7.30;99.90;;;;;;4958959;28;20066;-85
2020/12/24 10:27:12;;;;;;;9.38;2.33;;;7.30;99.90;;;;;;4943001;28;20365;-85
2020/12/24 10:29:40;;;;;;;12.57;2.85;;;7.30;99.90;;;;;;4958799;28;20033;-86
2020/12/24 10:32:06;;;;;;;13.05;2.30;;;7.40;99.90;;;;;;4927637;28;20035;-85
2020/12/24 10:34:31;;;;;;;13.70;2.42;;;7.40;99.90;;;;;;4975743;28;20496;-87
2020/12/24 10:36:59;;;;;;;14.65;3.85;;;7.40;99.90;;;;;;4927144;28;20138;-87
2020/12/24 10:39:25;;;;;;;15.20;3.67;;;7.50;99.90;;;;;;4958729;28;20030;-86
2020/12/24 10:41:51;;;;;;;15.13;2.92;;;7.50;99.90;;;;;;4942986;28;20027;-86
2020/12/24 10:44:18;;;;;;;11.73;3.22;;;7.50;99.90;;;;;;4960023;28;20070;-89
2020/12/24 10:46:44;;;;;;;19.75;3.92;;;7.50;99.90;;;;;;4964013;28;20085;-86
2020/12/24 10:49:10;;;;;;;19.05;3.95;;;7.50;99.90;;;;;;4962232;28;20455;-86
2020/12/24 10:51:36;;;;;;;17.65;3.45;;;7.60;99.90;;;;;;4963984;28;20047;-88
2020/12/24 10:54:02;;;;;;;15.63;2.95;;;7.60;99.90;;;;;;4946116;28;20043;-85
2020/12/24 10:56:28;;;;;;;20.85;2.90;;;7.60;99.90;;;;;;4943276;28;20053;-85
2020/12/24 10:58:54;;;;;;;17.15;3.38;;;7.60;99.90;;;;;;4958764;28;20548;-86
2020/12/24 11:01:19;;;;;;;10.95;2.92;;;7.60;99.90;;;;;;4943026;28;20054;-86
2020/12/24 11:03:46;;;;;;;17.30;3.22;;;7.70;99.90;;;;;;4943304;28;20046;-85
2020/12/24 11:06:20;;;;;;;23.23;3.30;;;7.70;99.90;;;;;;4960725;28;20035;-82
2020/12/24 11:08:47;;;;;;;15.23;3.53;;;7.70;99.90;;;;;;4987672;28;20086;-85
2020/12/24 11:11:13;;;;;;;17.48;3.17;;;7.60;99.90;;;;;;4960683;28;20027;-85
2020/12/24 11:13:41;;;;;;;20.33;3.40;;;7.60;99.90;;;;;;4942696;28;20061;-85
2020/12/24 11:16:06;;;;;;;17.08;3.80;;;7.50;99.90;;;;;;4958116;28;20023;-86
2020/12/24 11:18:33;;;;;;;14.93;2.55;;;7.50;99.90;;;;;;4957915;28;20038;-86
2020/12/24 11:20:59;;;;;;;14.65;2.55;;;7.50;99.90;;;;;;4958203;28;20038;-86
2020/12/24 11:23:25;;;;;;;13.05;2.33;;;7.40;99.90;;;;;;4942151;28;20405;-86
2020/12/24 11:25:51;;;;;;;11.63;2.20;;;7.30;99.90;;;;;;4926798;28;20046;-87
2020/12/24 11:28:17;;;;;;;15.10;2.80;;;7.30;99.90;;;;;;4926441;28;20035;-86
2020/12/24 11:30:42;;;;;;;15.25;3.33;;;7.30;99.90;;;;;;4957709;28;20428;-87
2020/12/24 11:33:08;;;;;;;13.30;4.60;;;7.30;99.90;;;;;;4926819;28;20038;-87
2020/12/24 11:35:34;;;;;;;13.38;2.97;;;7.30;99.90;;;;;;4958270;28;20077;-86
2020/12/24 11:38:00;;;;;;;9.32;2.70;;;7.40;99.90;;;;;;4958616;28;20050;-86
2020/12/24 11:40:25;;;;;;;12.07;2.45;;;7.40;99.90;;;;;;4926721;28;20125;-87
2020/12/24 11:42:51;;;;;;;10.68;2.03;;;7.50;99.90;;;;;;4976068;28;20078;-88
2020/12/24 11:45:16;;;;;;;9.05;1.60;;;7.20;99.90;;;;;;4975821;28;20070;-86
2020/12/24 11:47:42;;;;;;;12.73;1.80;;;7.00;99.90;;;;;;4942957;28;20034;-85
2020/12/24 11:50:08;;;;;;;6.43;1.80;;;6.90;99.90;;;;;;4943719;28;20034;-87
2020/12/24 11:52:37;;;;;;;5.88;1.30;;;6.80;99.90;;;;;;4973035;28;20162;-87
2020/12/24 11:55:07;;;;;;;5.63;1.63;;;6.80;99.90;;;;;;4960914;28;20102;-87
2020/12/24 11:57:36;;;;;;;8.63;2.38;;;6.80;99.90;;;;;;4979425;28;20053;-88
2020/12/24 12:00:03;;;;;;;16.08;2.40;;;6.80;99.90;;;;;;4964036;28;20128;-86
2020/12/24 12:03:47;;;;;;;5.85;2.53;;;6.90;99.90;;;;;;4980903;28;20070;-89
2020/12/24 12:06:13;;;;;;;10.48;2.42;;;7.20;99.90;;;;;;4943850;29;20047;-88
2020/12/24 12:08:39;;;;;;;14.52;3.05;;;7.20;99.90;;;;;;4957701;29;20038;-88
2020/12/24 12:11:06;;;;;;;15.85;2.83;;;7.00;99.90;;;;;;4949688;29;20023;-88
2020/12/24 12:13:32;;;;;;;9.55;2.13;;;7.00;99.90;;;;;;4957388;29;20360;-87
2020/12/24 12:15:58;;;;;;;13.40;2.60;;;7.00;99.90;;;;;;4954778;29;20027;-87
2020/12/24 12:18:26;;;;;;;11.35;3.58;;;7.00;99.90;;;;;;4954480;29;20023;-88
2020/12/24 12:20:52;;;;;;;20.15;3.05;;;7.00;99.90;;;;;;4956136;29;20058;-88
2020/12/24 12:23:22;;;;;;;19.15;3.28;;;7.00;99.90;;;;;;4954154;29;20075;-87
2020/12/24 12:25:48;;;;;;;19.27;3.70;;;6.90;99.90;;;;;;4955243;29;20039;-86
2020/12/24 12:28:13;;;;;;;19.27;3.90;;;6.80;99.90;;;;;;4955225;29;20383;-87
2020/12/24 12:30:41;;;;;;;18.25;2.80;;;6.80;99.90;;;;;;4953707;29;20038;-87
2020/12/24 12:33:11;;;;;;;11.85;2.40;;;6.60;99.90;;;;;;4953813;29;20031;-87
2020/12/24 12:35:39;;;;;;;12.88;2.55;;;6.40;99.90;;;;;;4955042;29;20027;-85
2020/12/24 12:38:05;;;;;;;12.48;2.45;;;6.30;99.90;;;;;;4953594;29;20035;-85
2020/12/24 12:40:31;;;;;;;14.73;3.50;;;6.30;99.90;;;;;;4969504;28;20122;-86
2020/12/24 12:42:56;;;;;;;28.45;5.38;;;6.30;99.90;;;;;;4969901;28;20036;-86
2020/12/24 12:45:25;;;;;;;26.20;4.68;;;6.40;99.90;;;;;;4953748;28;20031;-87
2020/12/24 12:47:51;;;;;;;22.75;3.55;;;6.40;99.90;;;;;;4954007;29;20106;-87
2020/12/24 12:50:17;;;;;;;22.55;3.92;;;6.40;99.90;;;;;;4953940;29;20035;-87
2020/12/24 12:52:43;;;;;;;22.25;3.45;;;6.40;99.90;;;;;;4953690;29;20027;-86
2020/12/24 12:55:08;;;;;;;14.25;3.50;;;6.40;99.90;;;;;;4953452;29;20034;-84
2020/12/24 12:57:37;;;;;;;15.80;4.00;;;6.30;99.90;;;;;;4953410;29;20035;-88
2020/12/24 13:00:09;;;;;;;19.77;5.18;;;6.40;99.90;;;;;;4953414;28;20031;-86